الصفحة الرئيسية
METAR-TAF:

METAR-TAF

مطار :

Kosrae, مايكرونيزيا

دائرة عرض: 05-21N, خط طول: 162-57E, ارتفاع: 3 متر

مراقبة الطقس الحالي

تاريخ ووقت الإصدار 1ساعة و 19 دقيقة قبل الساعة 21:50UTC
ريح 3 عقدة من الجنوب/الجنوب الشرقي
درجة الحرارة 28°درجة مئوية
الرطوبة 89%
ضغط 1011 hPa
الرؤية: 16.1 كم
غيوم متفرقة على ارتفاع 1800 قدم, مزن ركامية عمودية.
غيوم مفككة على ارتفاع 13000 قدم
ملبد بالغيوم على ارتفاع 30000 قدم

METAR: PTSA 052150Z 15003KT 10SM SCT018TCU BKN130 OVC300 28/26 A2986 RMK TCU W-NW FIRST

زمن: 10:09 (23:09 UTC)

توقعات

تاريخ ووقت الإصدار 59 دقيقة قبل الساعة 22:10UTC
التوقعات صالحة من05 الساعة 22 UTC إلى 06 الساعة 18 UTC
ريح 8 عقدة من الجنوب الشرقي
الرؤية: 10 كم
غيوم متفرقة على ارتفاع 1600 قدم
غيوم متفرقة على ارتفاع 4000 قدم
غيوم مفككة على ارتفاع 10000 قدم
زخات في الجوار

TAF: PTSA 052210Z 0522/0618 13008KT P6SM VCSH SCT016 SCT040 BKN100

أرصاد الطقس والتوقعات من أكثر من 4000 مطار (تقارير الطقس للمطار METAR والتنبؤ بالطقس بالمطارTAF).

المحطات المتاحة هي النقط الصفراء والحمراء على الخريطة.

حرك المؤشر فوق النقطة لمعرفة اسم المحطة.

ثم انقر لمعرفة أرصاد وتوقعات الطقس.

لتغيير الخارطة: اضغط على الأزرار الخضراء مع رمز الصليب الأسود للتكبير. على الزر الأخضر مع شرطة للتصغير، أو على الأسهم الخضراء للخرائط المجاورة.


METAR-TAF: